sensor_id;sensor_type;location;lat;lon;timestamp;temperature;humidity
18321;DHT22;54904;54.350;18.664;2023-03-14T00:02:16;11.40;99.90
18321;DHT22;54904;54.350;18.664;2023-03-14T00:04:43;11.40;99.90
18321;DHT22;54904;54.350;18.664;2023-03-14T00:07:13;11.40;99.90
18321;DHT22;54904;54.350;18.664;2023-03-14T00:09:40;11.40;99.90
18321;DHT22;54904;54.350;18.664;2023-03-14T00:12:09;11.40;99.90
18321;DHT22;54904;54.350;18.664;2023-03-14T00:14:36;11.40;99.90
18321;DHT22;54904;54.350;18.664;2023-03-14T00:17:03;11.50;99.90
18321;DHT22;54904;54.350;18.664;2023-03-14T00:19:30;11.40;99.90
18321;DHT22;54904;54.350;18.664;2023-03-14T00:21:57;11.50;99.90
18321;DHT22;54904;54.350;18.664;2023-03-14T00:24:26;11.50;99.90
18321;DHT22;54904;54.350;18.664;2023-03-14T00:26:53;11.50;99.90
18321;DHT22;54904;54.350;18.664;2023-03-14T00:29:22;11.50;99.90
18321;DHT22;54904;54.350;18.664;2023-03-14T00:31:49;11.50;99.90
18321;DHT22;54904;54.350;18.664;2023-03-14T00:34:16;11.50;99.90
18321;DHT22;54904;54.350;18.664;2023-03-14T00:36:44;11.50;99.90
18321;DHT22;54904;54.350;18.664;2023-03-14T00:39:12;11.50;99.90
18321;DHT22;54904;54.350;18.664;2023-03-14T00:41:41;11.50;99.90
18321;DHT22;54904;54.350;18.664;2023-03-14T00:44:08;11.50;99.90
18321;DHT22;54904;54.350;18.664;2023-03-14T00:46:35;11.50;99.90
18321;DHT22;54904;54.350;18.664;2023-03-14T00:49:02;11.50;99.90
18321;DHT22;54904;54.350;18.664;2023-03-14T00:51:29;11.50;99.90
18321;DHT22;54904;54.350;18.664;2023-03-14T00:53:56;11.50;99.90
18321;DHT22;54904;54.350;18.664;2023-03-14T00:56:23;11.50;99.90
18321;DHT22;54904;54.350;18.664;2023-03-14T00:58:54;11.50;99.90
18321;DHT22;54904;54.350;18.664;2023-03-14T01:01:23;11.50;99.90
18321;DHT22;54904;54.350;18.664;2023-03-14T01:03:51;11.60;99.90
18321;DHT22;54904;54.350;18.664;2023-03-14T01:06:21;11.60;99.90
18321;DHT22;54904;54.350;18.664;2023-03-14T01:08:48;11.60;99.90
18321;DHT22;54904;54.350;18.664;2023-03-14T01:11:18;11.60;99.90
18321;DHT22;54904;54.350;18.664;2023-03-14T01:13:45;11.60;99.90
18321;DHT22;54904;54.350;18.664;2023-03-14T01:16:15;11.60;99.90
18321;DHT22;54904;54.350;18.664;2023-03-14T01:18:43;11.60;99.90
18321;DHT22;54904;54.350;18.664;2023-03-14T01:21:12;11.60;99.90
18321;DHT22;54904;54.350;18.664;2023-03-14T01:23:39;11.60;99.90
18321;DHT22;54904;54.350;18.664;2023-03-14T01:26:09;11.60;99.90
18321;DHT22;54904;54.350;18.664;2023-03-14T01:28:38;11.60;99.90
18321;DHT22;54904;54.350;18.664;2023-03-14T01:31:07;11.60;99.90
18321;DHT22;54904;54.350;18.664;2023-03-14T01:33:37;11.60;99.90
18321;DHT22;54904;54.350;18.664;2023-03-14T01:36:05;11.60;99.90
18321;DHT22;54904;54.350;18.664;2023-03-14T01:38:33;11.70;99.90
18321;DHT22;54904;54.350;18.664;2023-03-14T01:41:03;11.70;99.90
18321;DHT22;54904;54.350;18.664;2023-03-14T01:43:30;11.70;99.90
18321;DHT22;54904;54.350;18.664;2023-03-14T01:46:21;11.70;99.90
18321;DHT22;54904;54.350;18.664;2023-03-14T01:48:55;11.70;99.90
18321;DHT22;54904;54.350;18.664;2023-03-14T01:51:29;11.70;99.90
18321;DHT22;54904;54.350;18.664;2023-03-14T01:54:04;11.70;99.90
18321;DHT22;54904;54.350;18.664;2023-03-14T01:56:33;11.60;99.90
18321;DHT22;54904;54.350;18.664;2023-03-14T01:59:04;11.60;99.90
18321;DHT22;54904;54.350;18.664;2023-03-14T02:01:33;11.60;99.90
18321;DHT22;54904;54.350;18.664;2023-03-14T02:04:04;11.60;99.90
18321;DHT22;54904;54.350;18.664;2023-03-14T02:06:39;11.60;99.90
18321;DHT22;54904;54.350;18.664;2023-03-14T02:09:07;11.60;99.90
18321;DHT22;54904;54.350;18.664;2023-03-14T02:11:35;11.60;99.90
18321;DHT22;54904;54.350;18.664;2023-03-14T02:14:18;11.50;99.90
18321;DHT22;54904;54.350;18.664;2023-03-14T02:17:09;11.50;99.90
18321;DHT22;54904;54.350;18.664;2023-03-14T02:20:08;11.50;99.90
18321;DHT22;54904;54.350;18.664;2023-03-14T02:22:42;11.40;99.90
18321;DHT22;54904;54.350;18.664;2023-03-14T02:25:15;11.40;99.90
18321;DHT22;54904;54.350;18.664;2023-03-14T02:27:47;11.40;99.90
18321;DHT22;54904;54.350;18.664;2023-03-14T02:30:18;11.40;99.90
18321;DHT22;54904;54.350;18.664;2023-03-14T02:32:47;11.40;99.90
18321;DHT22;54904;54.350;18.664;2023-03-14T02:35:18;11.30;99.90
18321;DHT22;54904;54.350;18.664;2023-03-14T02:37:51;11.40;99.90
18321;DHT22;54904;54.350;18.664;2023-03-14T02:40:20;11.40;99.90
18321;DHT22;54904;54.350;18.664;2023-03-14T02:42:51;11.40;99.90
18321;DHT22;54904;54.350;18.664;2023-03-14T02:45:36;11.40;99.90
18321;DHT22;54904;54.350;18.664;2023-03-14T02:48:06;11.30;99.90
18321;DHT22;54904;54.350;18.664;2023-03-14T02:50:37;11.30;99.90
18321;DHT22;54904;54.350;18.664;2023-03-14T02:53:05;11.30;99.90
18321;DHT22;54904;54.350;18.664;2023-03-14T02:55:32;11.20;99.90
18321;DHT22;54904;54.350;18.664;2023-03-14T02:58:06;11.20;99.90
18321;DHT22;54904;54.350;18.664;2023-03-14T03:00:34;11.20;99.90
18321;DHT22;54904;54.350;18.664;2023-03-14T03:03:03;11.20;99.90
18321;DHT22;54904;54.350;18.664;2023-03-14T03:05:31;11.20;99.90
18321;DHT22;54904;54.350;18.664;2023-03-14T03:07:59;11.20;99.90
18321;DHT22;54904;54.350;18.664;2023-03-14T03:10:27;11.20;99.90
18321;DHT22;54904;54.350;18.664;2023-03-14T03:12:54;11.20;99.90
18321;DHT22;54904;54.350;18.664;2023-03-14T03:15:26;11.20;99.90
18321;DHT22;54904;54.350;18.664;2023-03-14T03:17:54;11.20;99.90
18321;DHT22;54904;54.350;18.664;2023-03-14T03:20:21;11.20;99.90
18321;DHT22;54904;54.350;18.664;2023-03-14T03:22:48;11.20;99.90
18321;DHT22;54904;54.350;18.664;2023-03-14T03:25:16;11.20;99.90
18321;DHT22;54904;54.350;18.664;2023-03-14T03:27:45;11.20;99.90
18321;DHT22;54904;54.350;18.664;2023-03-14T03:30:16;11.20;99.90
18321;DHT22;54904;54.350;18.664;2023-03-14T03:32:45;11.20;99.90
18321;DHT22;54904;54.350;18.664;2023-03-14T03:35:12;11.20;99.90
18321;DHT22;54904;54.350;18.664;2023-03-14T03:37:41;11.30;99.90
18321;DHT22;54904;54.350;18.664;2023-03-14T03:40:09;11.30;99.90
18321;DHT22;54904;54.350;18.664;2023-03-14T03:42:36;11.30;99.90
18321;DHT22;54904;54.350;18.664;2023-03-14T03:45:08;11.30;99.90
18321;DHT22;54904;54.350;18.664;2023-03-14T03:47:41;11.30;99.90
18321;DHT22;54904;54.350;18.664;2023-03-14T03:50:10;11.30;99.90
18321;DHT22;54904;54.350;18.664;2023-03-14T03:52:37;11.40;99.90
18321;DHT22;54904;54.350;18.664;2023-03-14T03:55:05;11.30;99.90
18321;DHT22;54904;54.350;18.664;2023-03-14T03:57:32;11.40;99.90
18321;DHT22;54904;54.350;18.664;2023-03-14T03:59:59;11.40;99.90
18321;DHT22;54904;54.350;18.664;2023-03-14T04:02:27;11.40;99.90
18321;DHT22;54904;54.350;18.664;2023-03-14T04:04:55;11.40;99.90
18321;DHT22;54904;54.350;18.664;2023-03-14T04:07:24;11.40;99.90
18321;DHT22;54904;54.350;18.664;2023-03-14T04:09:51;11.40;99.90
18321;DHT22;54904;54.350;18.664;2023-03-14T04:12:25;11.40;99.90
18321;DHT22;54904;54.350;18.664;2023-03-14T04:15:05;11.50;99.90
18321;DHT22;54904;54.350;18.664;2023-03-14T04:17:34;11.50;99.90
18321;DHT22;54904;54.350;18.664;2023-03-14T04:20:01;11.50;99.90
18321;DHT22;54904;54.350;18.664;2023-03-14T04:22:37;11.50;99.90
18321;DHT22;54904;54.350;18.664;2023-03-14T04:25:05;11.50;99.90
18321;DHT22;54904;54.350;18.664;2023-03-14T04:27:37;11.50;99.90
18321;DHT22;54904;54.350;18.664;2023-03-14T04:30:11;11.60;99.90
18321;DHT22;54904;54.350;18.664;2023-03-14T04:33:11;11.60;99.90
18321;DHT22;54904;54.350;18.664;2023-03-14T04:35:47;11.60;99.90
18321;DHT22;54904;54.350;18.664;2023-03-14T04:38:19;11.60;99.90
18321;DHT22;54904;54.350;18.664;2023-03-14T04:40:47;11.60;99.90
18321;DHT22;54904;54.350;18.664;2023-03-14T04:43:18;11.60;99.90
18321;DHT22;54904;54.350;18.664;2023-03-14T04:45:51;11.60;99.90
18321;DHT22;54904;54.350;18.664;2023-03-14T04:48:18;11.60;99.90
18321;DHT22;54904;54.350;18.664;2023-03-14T04:50:47;11.60;99.90
18321;DHT22;54904;54.350;18.664;2023-03-14T04:53:15;11.60;99.90
18321;DHT22;54904;54.350;18.664;2023-03-14T04:55:49;11.60;99.90
18321;DHT22;54904;54.350;18.664;2023-03-14T04:58:17;11.60;99.90
18321;DHT22;54904;54.350;18.664;2023-03-14T05:00:45;11.50;99.90
18321;DHT22;54904;54.350;18.664;2023-03-14T05:03:31;11.50;99.90
18321;DHT22;54904;54.350;18.664;2023-03-14T05:06:08;11.50;99.90
18321;DHT22;54904;54.350;18.664;2023-03-14T05:08:54;11.40;99.90
18321;DHT22;54904;54.350;18.664;2023-03-14T05:11:37;11.40;99.90
18321;DHT22;54904;54.350;18.664;2023-03-14T05:14:04;11.40;99.90
18321;DHT22;54904;54.350;18.664;2023-03-14T05:16:37;11.40;99.90
18321;DHT22;54904;54.350;18.664;2023-03-14T05:19:10;11.30;99.90
18321;DHT22;54904;54.350;18.664;2023-03-14T05:21:56;11.30;99.90
18321;DHT22;54904;54.350;18.664;2023-03-14T05:24:42;11.30;99.90
18321;DHT22;54904;54.350;18.664;2023-03-14T05:27:21;11.30;99.90
18321;DHT22;54904;54.350;18.664;2023-03-14T05:29:59;11.20;99.90
18321;DHT22;54904;54.350;18.664;2023-03-14T05:33:05;11.20;99.90
18321;DHT22;54904;54.350;18.664;2023-03-14T05:35:50;11.20;99.90
18321;DHT22;54904;54.350;18.664;2023-03-14T05:38:56;11.20;99.90
18321;DHT22;54904;54.350;18.664;2023-03-14T05:41:38;11.10;99.90
18321;DHT22;54904;54.350;18.664;2023-03-14T05:44:25;11.20;99.90
18321;DHT22;54904;54.350;18.664;2023-03-14T05:47:14;11.20;99.90
18321;DHT22;54904;54.350;18.664;2023-03-14T05:50:13;11.20;99.90
18321;DHT22;54904;54.350;18.664;2023-03-14T05:52:57;11.20;99.90
18321;DHT22;54904;54.350;18.664;2023-03-14T05:55:30;11.20;99.90
18321;DHT22;54904;54.350;18.664;2023-03-14T05:58:17;11.20;99.90
18321;DHT22;54904;54.350;18.664;2023-03-14T06:00:45;11.30;99.90
18321;DHT22;54904;54.350;18.664;2023-03-14T06:03:32;11.30;99.90
18321;DHT22;54904;54.350;18.664;2023-03-14T06:05:59;11.20;99.90
18321;DHT22;54904;54.350;18.664;2023-03-14T06:08:27;11.30;99.90
18321;DHT22;54904;54.350;18.664;2023-03-14T06:10:54;11.30;99.90
18321;DHT22;54904;54.350;18.664;2023-03-14T06:13:28;11.30;99.90
18321;DHT22;54904;54.350;18.664;2023-03-14T06:15:56;11.30;99.90
18321;DHT22;54904;54.350;18.664;2023-03-14T06:18:23;11.30;99.90
18321;DHT22;54904;54.350;18.664;2023-03-14T06:20:53;11.30;99.90
18321;DHT22;54904;54.350;18.664;2023-03-14T06:23:24;11.30;99.90
18321;DHT22;54904;54.350;18.664;2023-03-14T06:25:52;11.30;99.90
18321;DHT22;54904;54.350;18.664;2023-03-14T06:28:23;11.40;99.90
18321;DHT22;54904;54.350;18.664;2023-03-14T06:30:50;11.40;99.90
18321;DHT22;54904;54.350;18.664;2023-03-14T06:33:19;11.40;99.90
18321;DHT22;54904;54.350;18.664;2023-03-14T06:35:46;11.40;99.90
18321;DHT22;54904;54.350;18.664;2023-03-14T06:38:13;11.30;99.90
18321;DHT22;54904;54.350;18.664;2023-03-14T06:40:41;11.30;99.90
18321;DHT22;54904;54.350;18.664;2023-03-14T06:43:12;11.30;99.90
18321;DHT22;54904;54.350;18.664;2023-03-14T06:45:42;11.40;99.90
18321;DHT22;54904;54.350;18.664;2023-03-14T06:48:09;11.40;99.90
18321;DHT22;54904;54.350;18.664;2023-03-14T06:50:45;11.40;99.90
18321;DHT22;54904;54.350;18.664;2023-03-14T06:53:12;11.40;99.90
18321;DHT22;54904;54.350;18.664;2023-03-14T06:55:42;11.40;99.90
18321;DHT22;54904;54.350;18.664;2023-03-14T06:58:12;11.40;99.90
18321;DHT22;54904;54.350;18.664;2023-03-14T07:00:42;11.50;99.90
18321;DHT22;54904;54.350;18.664;2023-03-14T07:03:13;11.50;99.90
18321;DHT22;54904;54.350;18.664;2023-03-14T07:05:46;11.50;99.90
18321;DHT22;54904;54.350;18.664;2023-03-14T07:08:13;11.50;99.90
18321;DHT22;54904;54.350;18.664;2023-03-14T07:10:40;11.50;99.90
18321;DHT22;54904;54.350;18.664;2023-03-14T07:13:08;11.50;99.90
18321;DHT22;54904;54.350;18.664;2023-03-14T07:15:45;11.60;99.90
18321;DHT22;54904;54.350;18.664;2023-03-14T07:18:13;11.60;99.90
18321;DHT22;54904;54.350;18.664;2023-03-14T07:20:40;11.60;99.90
18321;DHT22;54904;54.350;18.664;2023-03-14T07:23:09;11.80;99.90
18321;DHT22;54904;54.350;18.664;2023-03-14T07:25:40;11.70;99.90
18321;DHT22;54904;54.350;18.664;2023-03-14T07:28:08;11.80;99.90
18321;DHT22;54904;54.350;18.664;2023-03-14T07:30:37;11.80;99.90
18321;DHT22;54904;54.350;18.664;2023-03-14T07:33:11;11.80;99.90
18321;DHT22;54904;54.350;18.664;2023-03-14T07:35:39;11.90;99.90
18321;DHT22;54904;54.350;18.664;2023-03-14T07:38:06;12.00;99.90
18321;DHT22;54904;54.350;18.664;2023-03-14T07:40:39;12.10;99.90
18321;DHT22;54904;54.350;18.664;2023-03-14T07:43:06;12.20;99.90
18321;DHT22;54904;54.350;18.664;2023-03-14T07:45:46;12.30;99.90
18321;DHT22;54904;54.350;18.664;2023-03-14T07:48:13;12.30;99.90
18321;DHT22;54904;54.350;18.664;2023-03-14T07:50:40;12.40;99.90
18321;DHT22;54904;54.350;18.664;2023-03-14T07:53:08;12.50;99.90
18321;DHT22;54904;54.350;18.664;2023-03-14T07:55:35;12.50;99.90
18321;DHT22;54904;54.350;18.664;2023-03-14T07:58:03;12.60;99.90
18321;DHT22;54904;54.350;18.664;2023-03-14T08:00:30;12.70;99.90
18321;DHT22;54904;54.350;18.664;2023-03-14T08:02:58;12.70;99.90
18321;DHT22;54904;54.350;18.664;2023-03-14T08:05:26;12.70;99.90
18321;DHT22;54904;54.350;18.664;2023-03-14T08:07:53;12.80;99.90
18321;DHT22;54904;54.350;18.664;2023-03-14T08:10:20;12.80;99.90
18321;DHT22;54904;54.350;18.664;2023-03-14T08:12:50;12.80;99.90
18321;DHT22;54904;54.350;18.664;2023-03-14T08:15:19;12.90;99.90
18321;DHT22;54904;54.350;18.664;2023-03-14T08:17:46;12.90;99.90
18321;DHT22;54904;54.350;18.664;2023-03-14T08:20:16;12.90;99.90
18321;DHT22;54904;54.350;18.664;2023-03-14T08:22:44;12.90;99.90
18321;DHT22;54904;54.350;18.664;2023-03-14T08:25:11;12.90;99.90
18321;DHT22;54904;54.350;18.664;2023-03-14T08:27:38;13.00;99.90
18321;DHT22;54904;54.350;18.664;2023-03-14T08:30:09;13.00;99.90
18321;DHT22;54904;54.350;18.664;2023-03-14T08:32:38;13.10;99.90
18321;DHT22;54904;54.350;18.664;2023-03-14T08:35:06;13.10;99.90
18321;DHT22;54904;54.350;18.664;2023-03-14T08:37:37;13.20;99.90
18321;DHT22;54904;54.350;18.664;2023-03-14T08:40:06;13.20;99.90
18321;DHT22;54904;54.350;18.664;2023-03-14T08:42:34;13.20;99.90
18321;DHT22;54904;54.350;18.664;2023-03-14T08:45:01;13.20;99.90
18321;DHT22;54904;54.350;18.664;2023-03-14T08:47:29;13.30;99.90
18321;DHT22;54904;54.350;18.664;2023-03-14T08:49:57;13.20;99.90
18321;DHT22;54904;54.350;18.664;2023-03-14T08:52:25;13.20;99.90
18321;DHT22;54904;54.350;18.664;2023-03-14T08:54:52;13.20;99.90
18321;DHT22;54904;54.350;18.664;2023-03-14T08:57:19;13.20;99.90
18321;DHT22;54904;54.350;18.664;2023-03-14T08:59:47;13.20;99.90
18321;DHT22;54904;54.350;18.664;2023-03-14T09:02:14;13.20;99.90
18321;DHT22;54904;54.350;18.664;2023-03-14T09:04:42;13.20;99.90
18321;DHT22;54904;54.350;18.664;2023-03-14T09:07:10;13.20;99.90
18321;DHT22;54904;54.350;18.664;2023-03-14T09:09:37;13.30;99.90
18321;DHT22;54904;54.350;18.664;2023-03-14T09:12:05;13.40;99.90
18321;DHT22;54904;54.350;18.664;2023-03-14T09:14:32;13.50;99.90
18321;DHT22;54904;54.350;18.664;2023-03-14T09:17:02;13.60;99.90
18321;DHT22;54904;54.350;18.664;2023-03-14T09:19:29;13.70;99.90
18321;DHT22;54904;54.350;18.664;2023-03-14T09:21:58;13.80;99.90
18321;DHT22;54904;54.350;18.664;2023-03-14T09:24:27;13.90;99.90
18321;DHT22;54904;54.350;18.664;2023-03-14T09:26:55;13.90;99.90
18321;DHT22;54904;54.350;18.664;2023-03-14T09:29:22;13.90;99.90
18321;DHT22;54904;54.350;18.664;2023-03-14T09:31:50;14.00;99.90
18321;DHT22;54904;54.350;18.664;2023-03-14T09:34:17;14.00;99.90
18321;DHT22;54904;54.350;18.664;2023-03-14T09:36:44;14.00;99.90
18321;DHT22;54904;54.350;18.664;2023-03-14T09:39:12;14.10;99.90
18321;DHT22;54904;54.350;18.664;2023-03-14T09:41:43;14.10;99.90
18321;DHT22;54904;54.350;18.664;2023-03-14T09:44:14;14.10;99.90
18321;DHT22;54904;54.350;18.664;2023-03-14T09:46:45;14.10;99.90
18321;DHT22;54904;54.350;18.664;2023-03-14T09:49:19;14.10;99.90
18321;DHT22;54904;54.350;18.664;2023-03-14T09:51:51;14.10;99.90
18321;DHT22;54904;54.350;18.664;2023-03-14T09:54:31;14.00;99.90
18321;DHT22;54904;54.350;18.664;2023-03-14T09:57:01;14.00;99.90
18321;DHT22;54904;54.350;18.664;2023-03-14T09:59:29;13.90;99.90
18321;DHT22;54904;54.350;18.664;2023-03-14T10:01:58;13.90;99.90
18321;DHT22;54904;54.350;18.664;2023-03-14T10:04:28;13.90;99.90
18321;DHT22;54904;54.350;18.664;2023-03-14T10:06:58;13.80;99.90
18321;DHT22;54904;54.350;18.664;2023-03-14T10:09:25;13.80;99.90
18321;DHT22;54904;54.350;18.664;2023-03-14T10:11:55;13.20;99.90
18321;DHT22;54904;54.350;18.664;2023-03-14T10:14:32;13.70;99.90
18321;DHT22;54904;54.350;18.664;2023-03-14T10:17:08;14.20;99.90
18321;DHT22;54904;54.350;18.664;2023-03-14T10:19:36;13.70;99.90
18321;DHT22;54904;54.350;18.664;2023-03-14T10:22:04;13.70;99.90
18321;DHT22;54904;54.350;18.664;2023-03-14T10:24:33;13.70;99.90
18321;DHT22;54904;54.350;18.664;2023-03-14T10:27:05;13.70;99.90
18321;DHT22;54904;54.350;18.664;2023-03-14T10:29:34;13.70;99.90
18321;DHT22;54904;54.350;18.664;2023-03-14T10:32:20;13.70;99.90
18321;DHT22;54904;54.350;18.664;2023-03-14T10:35:11;13.60;99.90
18321;DHT22;54904;54.350;18.664;2023-03-14T10:37:50;13.60;99.90
18321;DHT22;54904;54.350;18.664;2023-03-14T10:40:19;13.60;99.90
18321;DHT22;54904;54.350;18.664;2023-03-14T10:42:48;13.60;99.90
18321;DHT22;54904;54.350;18.664;2023-03-14T10:45:34;13.60;99.90
18321;DHT22;54904;54.350;18.664;2023-03-14T10:48:21;13.60;99.90
18321;DHT22;54904;54.350;18.664;2023-03-14T10:50:53;13.60;99.90
18321;DHT22;54904;54.350;18.664;2023-03-14T10:53:21;13.70;99.90
18321;DHT22;54904;54.350;18.664;2023-03-14T10:55:49;13.70;99.90
18321;DHT22;54904;54.350;18.664;2023-03-14T10:58:21;13.70;99.90
18321;DHT22;54904;54.350;18.664;2023-03-14T11:00:56;14.40;99.90
18321;DHT22;54904;54.350;18.664;2023-03-14T11:03:25;13.70;99.90
18321;DHT22;54904;54.350;18.664;2023-03-14T11:05:57;13.70;99.90
18321;DHT22;54904;54.350;18.664;2023-03-14T11:08:28;13.70;99.90
18321;DHT22;54904;54.350;18.664;2023-03-14T11:11:10;13.90;99.90
18321;DHT22;54904;54.350;18.664;2023-03-14T11:13:44;14.00;99.90
18321;DHT22;54904;54.350;18.664;2023-03-14T11:16:24;14.00;99.90
18321;DHT22;54904;54.350;18.664;2023-03-14T11:19:03;14.10;99.90
18321;DHT22;54904;54.350;18.664;2023-03-14T11:21:39;14.10;99.90
18321;DHT22;54904;54.350;18.664;2023-03-14T11:24:22;14.30;99.90
18321;DHT22;54904;54.350;18.664;2023-03-14T11:26:58;14.50;99.90
18321;DHT22;54904;54.350;18.664;2023-03-14T11:29:34;14.70;99.90
18321;DHT22;54904;54.350;18.664;2023-03-14T11:32:12;15.00;99.90
18321;DHT22;54904;54.350;18.664;2023-03-14T11:34:47;15.10;99.90
18321;DHT22;54904;54.350;18.664;2023-03-14T11:37:23;15.10;99.90
18321;DHT22;54904;54.350;18.664;2023-03-14T11:39:59;15.00;99.90
18321;DHT22;54904;54.350;18.664;2023-03-14T11:42:29;14.90;99.90
18321;DHT22;54904;54.350;18.664;2023-03-14T11:45:00;14.80;99.90
18321;DHT22;54904;54.350;18.664;2023-03-14T11:47:38;14.70;99.90
18321;DHT22;54904;54.350;18.664;2023-03-14T11:50:14;14.60;99.90
18321;DHT22;54904;54.350;18.664;2023-03-14T11:52:47;14.60;99.90
18321;DHT22;54904;54.350;18.664;2023-03-14T11:55:20;14.70;99.90
18321;DHT22;54904;54.350;18.664;2023-03-14T11:57:49;15.10;99.90
18321;DHT22;54904;54.350;18.664;2023-03-14T12:00:20;16.00;99.90
18321;DHT22;54904;54.350;18.664;2023-03-14T12:02:53;16.70;99.90
18321;DHT22;54904;54.350;18.664;2023-03-14T12:05:34;17.70;99.90
18321;DHT22;54904;54.350;18.664;2023-03-14T12:11:16;19.70;99.90
18321;DHT22;54904;54.350;18.664;2023-03-14T12:13:48;19.30;99.90
18321;DHT22;54904;54.350;18.664;2023-03-14T12:16:32;18.70;99.90
18321;DHT22;54904;54.350;18.664;2023-03-14T12:19:26;18.50;99.90
18321;DHT22;54904;54.350;18.664;2023-03-14T12:21:58;19.20;99.90
18321;DHT22;54904;54.350;18.664;2023-03-14T12:24:30;20.40;99.90
18321;DHT22;54904;54.350;18.664;2023-03-14T12:26:59;21.60;99.40
18321;DHT22;54904;54.350;18.664;2023-03-14T12:29:27;21.60;96.40
18321;DHT22;54904;54.350;18.664;2023-03-14T12:32:20;21.70;96.00
18321;DHT22;54904;54.350;18.664;2023-03-14T12:34:50;21.40;96.10
18321;DHT22;54904;54.350;18.664;2023-03-14T12:37:26;20.80;96.40
18321;DHT22;54904;54.350;18.664;2023-03-14T12:40:12;20.30;96.70
18321;DHT22;54904;54.350;18.664;2023-03-14T12:42:51;19.90;96.80
18321;DHT22;54904;54.350;18.664;2023-03-14T12:45:23;20.30;96.40
18321;DHT22;54904;54.350;18.664;2023-03-14T12:47:57;20.40;95.60
18321;DHT22;54904;54.350;18.664;2023-03-14T12:50:33;20.90;95.60
18321;DHT22;54904;54.350;18.664;2023-03-14T12:56:23;23.30;91.80
18321;DHT22;54904;54.350;18.664;2023-03-14T12:59:17;24.50;89.10
18321;DHT22;54904;54.350;18.664;2023-03-14T13:01:53;25.00;86.40
18321;DHT22;54904;54.350;18.664;2023-03-14T13:04:27;24.50;82.80
18321;DHT22;54904;54.350;18.664;2023-03-14T13:06:57;23.90;80.20
18321;DHT22;54904;54.350;18.664;2023-03-14T13:09:49;23.30;81.30
18321;DHT22;54904;54.350;18.664;2023-03-14T13:12:18;23.00;81.70
18321;DHT22;54904;54.350;18.664;2023-03-14T13:14:50;22.90;82.20
18321;DHT22;54904;54.350;18.664;2023-03-14T13:17:23;22.40;83.00
18321;DHT22;54904;54.350;18.664;2023-03-14T13:19:53;21.60;83.50
18321;DHT22;54904;54.350;18.664;2023-03-14T13:22:25;20.90;84.90
18321;DHT22;54904;54.350;18.664;2023-03-14T13:25:00;20.20;86.40
18321;DHT22;54904;54.350;18.664;2023-03-14T13:27:30;19.70;87.90
18321;DHT22;54904;54.350;18.664;2023-03-14T13:29:58;19.30;89.30
18321;DHT22;54904;54.350;18.664;2023-03-14T13:32:28;19.00;90.10
18321;DHT22;54904;54.350;18.664;2023-03-14T13:34:56;18.80;90.70
18321;DHT22;54904;54.350;18.664;2023-03-14T13:37:26;18.50;91.10
18321;DHT22;54904;54.350;18.664;2023-03-14T13:39:57;18.30;91.60
18321;DHT22;54904;54.350;18.664;2023-03-14T13:42:26;18.00;92.10
18321;DHT22;54904;54.350;18.664;2023-03-14T13:44:55;17.80;92.60
18321;DHT22;54904;54.350;18.664;2023-03-14T13:47:24;17.60;93.00
18321;DHT22;54904;54.350;18.664;2023-03-14T13:49:54;17.50;93.40
18321;DHT22;54904;54.350;18.664;2023-03-14T13:52:28;17.40;93.70
18321;DHT22;54904;54.350;18.664;2023-03-14T13:54:57;17.30;94.10
18321;DHT22;54904;54.350;18.664;2023-03-14T13:57:26;17.20;94.40
18321;DHT22;54904;54.350;18.664;2023-03-14T13:59:59;17.10;94.60
18321;DHT22;54904;54.350;18.664;2023-03-14T14:02:32;17.10;94.60
18321;DHT22;54904;54.350;18.664;2023-03-14T14:05:00;17.10;94.60
18321;DHT22;54904;54.350;18.664;2023-03-14T14:07:29;17.10;94.70
18321;DHT22;54904;54.350;18.664;2023-03-14T14:09:58;17.00;94.80
18321;DHT22;54904;54.350;18.664;2023-03-14T14:12:29;17.00;95.00
18321;DHT22;54904;54.350;18.664;2023-03-14T14:14:58;16.90;95.00
18321;DHT22;54904;54.350;18.664;2023-03-14T14:17:30;16.90;95.10
18321;DHT22;54904;54.350;18.664;2023-03-14T14:19:59;16.80;95.30
18321;DHT22;54904;54.350;18.664;2023-03-14T14:22:30;16.80;95.40
18321;DHT22;54904;54.350;18.664;2023-03-14T14:24:59;16.80;95.50
18321;DHT22;54904;54.350;18.664;2023-03-14T14:27:32;16.80;95.60
18321;DHT22;54904;54.350;18.664;2023-03-14T14:30:02;16.70;95.80
18321;DHT22;54904;54.350;18.664;2023-03-14T14:32:35;16.60;96.20
18321;DHT22;54904;54.350;18.664;2023-03-14T14:35:03;16.50;96.80
18321;DHT22;54904;54.350;18.664;2023-03-14T14:37:33;16.40;97.20
18321;DHT22;54904;54.350;18.664;2023-03-14T14:40:07;16.30;97.50
18321;DHT22;54904;54.350;18.664;2023-03-14T14:42:39;16.20;97.90
18321;DHT22;54904;54.350;18.664;2023-03-14T14:45:21;16.10;98.40
18321;DHT22;54904;54.350;18.664;2023-03-14T14:47:50;16.00;98.80
18321;DHT22;54904;54.350;18.664;2023-03-14T14:50:31;16.00;99.20
18321;DHT22;54904;54.350;18.664;2023-03-14T14:53:01;15.90;99.60
18321;DHT22;54904;54.350;18.664;2023-03-14T14:55:31;15.80;99.80
18321;DHT22;54904;54.350;18.664;2023-03-14T14:58:12;15.80;99.90
18321;DHT22;54904;54.350;18.664;2023-03-14T15:00:41;15.70;99.90
18321;DHT22;54904;54.350;18.664;2023-03-14T15:03:16;15.70;99.90
18321;DHT22;54904;54.350;18.664;2023-03-14T15:05:43;15.60;99.90
18321;DHT22;54904;54.350;18.664;2023-03-14T15:08:13;15.60;99.90
18321;DHT22;54904;54.350;18.664;2023-03-14T15:10:40;15.50;99.90
18321;DHT22;54904;54.350;18.664;2023-03-14T15:13:07;15.50;99.90
18321;DHT22;54904;54.350;18.664;2023-03-14T15:15:34;15.40;99.90
18321;DHT22;54904;54.350;18.664;2023-03-14T15:18:01;15.40;99.90
18321;DHT22;54904;54.350;18.664;2023-03-14T15:20:28;15.40;99.90
18321;DHT22;54904;54.350;18.664;2023-03-14T15:22:56;15.40;99.90
18321;DHT22;54904;54.350;18.664;2023-03-14T15:25:24;15.40;99.90
18321;DHT22;54904;54.350;18.664;2023-03-14T15:27:52;15.40;99.90
18321;DHT22;54904;54.350;18.664;2023-03-14T15:30:19;15.40;99.90
18321;DHT22;54904;54.350;18.664;2023-03-14T15:32:46;15.30;99.90
18321;DHT22;54904;54.350;18.664;2023-03-14T15:35:14;15.30;99.90
18321;DHT22;54904;54.350;18.664;2023-03-14T15:37:41;15.30;99.90
18321;DHT22;54904;54.350;18.664;2023-03-14T15:40:12;15.20;99.90
18321;DHT22;54904;54.350;18.664;2023-03-14T15:42:41;15.20;99.90
18321;DHT22;54904;54.350;18.664;2023-03-14T15:45:09;15.10;99.90
18321;DHT22;54904;54.350;18.664;2023-03-14T15:47:36;15.10;99.90
18321;DHT22;54904;54.350;18.664;2023-03-14T15:50:04;15.00;99.90